sensor_id;sensor_type;location;lat;lon;timestamp;P1;durP1;ratioP1;P2;durP2;ratioP2
48578;SDS011;34357;51.948;6.132;2023-03-04T00:00:28;30.23;;;4.63;;
48578;SDS011;34357;51.948;6.132;2023-03-04T00:02:54;29.08;;;3.90;;
48578;SDS011;34357;51.948;6.132;2023-03-04T00:05:20;23.80;;;3.47;;
48578;SDS011;34357;51.948;6.132;2023-03-04T00:07:45;21.95;;;3.03;;
48578;SDS011;34357;51.948;6.132;2023-03-04T00:10:11;27.83;;;4.43;;
48578;SDS011;34357;51.948;6.132;2023-03-04T00:12:37;22.60;;;3.30;;
48578;SDS011;34357;51.948;6.132;2023-03-04T00:15:03;18.13;;;3.13;;
48578;SDS011;34357;51.948;6.132;2023-03-04T00:17:29;26.90;;;3.85;;
48578;SDS011;34357;51.948;6.132;2023-03-04T00:19:56;33.47;;;3.72;;
48578;SDS011;34357;51.948;6.132;2023-03-04T00:22:22;25.35;;;3.58;;
48578;SDS011;34357;51.948;6.132;2023-03-04T00:24:48;20.13;;;3.28;;
48578;SDS011;34357;51.948;6.132;2023-03-04T00:27:14;20.60;;;3.13;;
48578;SDS011;34357;51.948;6.132;2023-03-04T00:29:40;19.25;;;3.47;;
48578;SDS011;34357;51.948;6.132;2023-03-04T00:32:06;27.13;;;3.67;;
48578;SDS011;34357;51.948;6.132;2023-03-04T00:34:31;22.45;;;3.20;;
48578;SDS011;34357;51.948;6.132;2023-03-04T00:36:57;25.65;;;3.30;;
48578;SDS011;34357;51.948;6.132;2023-03-04T00:39:28;25.42;;;3.63;;
48578;SDS011;34357;51.948;6.132;2023-03-04T00:41:54;26.30;;;4.20;;
48578;SDS011;34357;51.948;6.132;2023-03-04T00:44:20;19.55;;;3.17;;
48578;SDS011;34357;51.948;6.132;2023-03-04T00:46:46;29.02;;;5.45;;
48578;SDS011;34357;51.948;6.132;2023-03-04T00:49:12;28.67;;;4.75;;
48578;SDS011;34357;51.948;6.132;2023-03-04T00:51:38;27.23;;;4.55;;
48578;SDS011;34357;51.948;6.132;2023-03-04T00:54:04;28.42;;;4.03;;
48578;SDS011;34357;51.948;6.132;2023-03-04T00:56:29;29.50;;;3.88;;
48578;SDS011;34357;51.948;6.132;2023-03-04T00:58:55;18.35;;;3.50;;
48578;SDS011;34357;51.948;6.132;2023-03-04T01:01:21;22.20;;;3.90;;
48578;SDS011;34357;51.948;6.132;2023-03-04T01:03:47;25.58;;;4.95;;
48578;SDS011;34357;51.948;6.132;2023-03-04T01:06:12;25.92;;;3.83;;
48578;SDS011;34357;51.948;6.132;2023-03-04T01:08:38;26.00;;;3.35;;
48578;SDS011;34357;51.948;6.132;2023-03-04T01:11:04;20.38;;;3.78;;
48578;SDS011;34357;51.948;6.132;2023-03-04T01:13:30;24.23;;;3.45;;
48578;SDS011;34357;51.948;6.132;2023-03-04T01:15:56;23.25;;;3.35;;
48578;SDS011;34357;51.948;6.132;2023-03-04T01:18:22;29.30;;;4.15;;
48578;SDS011;34357;51.948;6.132;2023-03-04T01:20:49;22.48;;;3.42;;
48578;SDS011;34357;51.948;6.132;2023-03-04T01:23:14;17.48;;;2.60;;
48578;SDS011;34357;51.948;6.132;2023-03-04T01:25:41;18.90;;;2.63;;
48578;SDS011;34357;51.948;6.132;2023-03-04T01:28:06;20.95;;;3.05;;
48578;SDS011;34357;51.948;6.132;2023-03-04T01:30:32;24.08;;;2.70;;
48578;SDS011;34357;51.948;6.132;2023-03-04T01:32:58;29.52;;;3.45;;
48578;SDS011;34357;51.948;6.132;2023-03-04T01:35:24;25.85;;;3.40;;
48578;SDS011;34357;51.948;6.132;2023-03-04T01:37:49;19.75;;;2.97;;
48578;SDS011;34357;51.948;6.132;2023-03-04T01:40:15;14.60;;;2.90;;
48578;SDS011;34357;51.948;6.132;2023-03-04T01:42:42;21.83;;;3.42;;
48578;SDS011;34357;51.948;6.132;2023-03-04T01:45:13;22.70;;;3.00;;
48578;SDS011;34357;51.948;6.132;2023-03-04T01:47:41;24.27;;;2.65;;
48578;SDS011;34357;51.948;6.132;2023-03-04T01:50:23;18.48;;;2.88;;
48578;SDS011;34357;51.948;6.132;2023-03-04T01:52:55;20.25;;;3.08;;
48578;SDS011;34357;51.948;6.132;2023-03-04T01:55:21;21.10;;;2.58;;
48578;SDS011;34357;51.948;6.132;2023-03-04T01:57:48;26.92;;;2.90;;
48578;SDS011;34357;51.948;6.132;2023-03-04T02:02:53;23.70;;;2.35;;
48578;SDS011;34357;51.948;6.132;2023-03-04T02:05:22;15.55;;;3.03;;
48578;SDS011;34357;51.948;6.132;2023-03-04T02:07:49;23.75;;;2.60;;
48578;SDS011;34357;51.948;6.132;2023-03-04T02:10:17;22.13;;;2.85;;
48578;SDS011;34357;51.948;6.132;2023-03-04T02:12:43;18.92;;;2.28;;
48578;SDS011;34357;51.948;6.132;2023-03-04T02:15:09;23.27;;;2.80;;
48578;SDS011;34357;51.948;6.132;2023-03-04T02:17:35;21.15;;;2.63;;
48578;SDS011;34357;51.948;6.132;2023-03-04T02:22:38;17.48;;;2.05;;
48578;SDS011;34357;51.948;6.132;2023-03-04T02:25:10;19.38;;;2.33;;
48578;SDS011;34357;51.948;6.132;2023-03-04T02:27:43;20.17;;;2.40;;
48578;SDS011;34357;51.948;6.132;2023-03-04T02:30:09;15.07;;;2.25;;
48578;SDS011;34357;51.948;6.132;2023-03-04T02:32:36;18.33;;;3.53;;
48578;SDS011;34357;51.948;6.132;2023-03-04T02:35:02;21.95;;;2.60;;
48578;SDS011;34357;51.948;6.132;2023-03-04T02:37:28;15.85;;;2.28;;
48578;SDS011;34357;51.948;6.132;2023-03-04T02:39:54;22.20;;;2.30;;
48578;SDS011;34357;51.948;6.132;2023-03-04T02:42:20;23.45;;;2.65;;
48578;SDS011;34357;51.948;6.132;2023-03-04T02:44:46;20.25;;;2.50;;
48578;SDS011;34357;51.948;6.132;2023-03-04T02:47:14;25.20;;;2.67;;
48578;SDS011;34357;51.948;6.132;2023-03-04T02:49:45;23.15;;;2.75;;
48578;SDS011;34357;51.948;6.132;2023-03-04T02:52:18;20.10;;;2.65;;
48578;SDS011;34357;51.948;6.132;2023-03-04T02:54:46;23.25;;;2.22;;
48578;SDS011;34357;51.948;6.132;2023-03-04T02:57:12;21.42;;;2.33;;
48578;SDS011;34357;51.948;6.132;2023-03-04T02:59:41;19.25;;;2.70;;
48578;SDS011;34357;51.948;6.132;2023-03-04T03:02:11;26.90;;;3.40;;
48578;SDS011;34357;51.948;6.132;2023-03-04T03:04:37;22.67;;;2.70;;
48578;SDS011;34357;51.948;6.132;2023-03-04T03:07:07;16.35;;;1.95;;
48578;SDS011;34357;51.948;6.132;2023-03-04T03:09:33;26.90;;;2.45;;
48578;SDS011;34357;51.948;6.132;2023-03-04T03:11:59;20.75;;;2.95;;
48578;SDS011;34357;51.948;6.132;2023-03-04T03:14:26;16.83;;;2.28;;
48578;SDS011;34357;51.948;6.132;2023-03-04T03:16:52;14.65;;;2.22;;
48578;SDS011;34357;51.948;6.132;2023-03-04T03:19:18;18.63;;;2.92;;
48578;SDS011;34357;51.948;6.132;2023-03-04T03:21:44;16.27;;;2.15;;
48578;SDS011;34357;51.948;6.132;2023-03-04T03:24:10;24.33;;;2.83;;
48578;SDS011;34357;51.948;6.132;2023-03-04T03:26:36;17.63;;;2.97;;
48578;SDS011;34357;51.948;6.132;2023-03-04T03:29:03;23.42;;;2.95;;
48578;SDS011;34357;51.948;6.132;2023-03-04T03:31:29;20.20;;;2.83;;
48578;SDS011;34357;51.948;6.132;2023-03-04T03:33:55;19.48;;;3.03;;
48578;SDS011;34357;51.948;6.132;2023-03-04T03:36:21;18.55;;;2.42;;
48578;SDS011;34357;51.948;6.132;2023-03-04T03:38:46;23.83;;;2.55;;
48578;SDS011;34357;51.948;6.132;2023-03-04T03:41:12;21.92;;;2.67;;
48578;SDS011;34357;51.948;6.132;2023-03-04T03:43:38;17.27;;;2.33;;
48578;SDS011;34357;51.948;6.132;2023-03-04T03:46:03;22.73;;;2.63;;
48578;SDS011;34357;51.948;6.132;2023-03-04T03:48:29;15.68;;;2.30;;
48578;SDS011;34357;51.948;6.132;2023-03-04T03:50:55;16.00;;;2.25;;
48578;SDS011;34357;51.948;6.132;2023-03-04T03:53:20;17.88;;;2.85;;
48578;SDS011;34357;51.948;6.132;2023-03-04T03:55:46;14.75;;;2.25;;
48578;SDS011;34357;51.948;6.132;2023-03-04T03:58:12;20.00;;;3.22;;
48578;SDS011;34357;51.948;6.132;2023-03-04T04:00:38;26.65;;;3.08;;
48578;SDS011;34357;51.948;6.132;2023-03-04T04:03:04;16.88;;;2.45;;
48578;SDS011;34357;51.948;6.132;2023-03-04T04:05:30;17.25;;;2.20;;
48578;SDS011;34357;51.948;6.132;2023-03-04T04:07:56;14.77;;;2.25;;
48578;SDS011;34357;51.948;6.132;2023-03-04T04:10:21;16.25;;;2.33;;
48578;SDS011;34357;51.948;6.132;2023-03-04T04:12:47;16.88;;;2.80;;
48578;SDS011;34357;51.948;6.132;2023-03-04T04:15:13;18.02;;;2.65;;
48578;SDS011;34357;51.948;6.132;2023-03-04T04:17:39;14.98;;;2.05;;
48578;SDS011;34357;51.948;6.132;2023-03-04T04:20:06;17.70;;;2.40;;
48578;SDS011;34357;51.948;6.132;2023-03-04T04:22:32;15.98;;;2.58;;
48578;SDS011;34357;51.948;6.132;2023-03-04T04:24:58;21.30;;;2.33;;
48578;SDS011;34357;51.948;6.132;2023-03-04T04:27:24;12.32;;;2.17;;
48578;SDS011;34357;51.948;6.132;2023-03-04T04:29:49;15.45;;;2.00;;
48578;SDS011;34357;51.948;6.132;2023-03-04T04:32:15;15.38;;;2.53;;
48578;SDS011;34357;51.948;6.132;2023-03-04T04:34:41;16.70;;;1.88;;
48578;SDS011;34357;51.948;6.132;2023-03-04T04:37:07;18.38;;;2.08;;
48578;SDS011;34357;51.948;6.132;2023-03-04T04:39:32;12.32;;;2.05;;
48578;SDS011;34357;51.948;6.132;2023-03-04T04:41:58;16.45;;;2.03;;
48578;SDS011;34357;51.948;6.132;2023-03-04T04:44:24;18.10;;;2.30;;
48578;SDS011;34357;51.948;6.132;2023-03-04T04:46:50;11.23;;;1.95;;
48578;SDS011;34357;51.948;6.132;2023-03-04T04:49:16;10.35;;;1.40;;
48578;SDS011;34357;51.948;6.132;2023-03-04T04:51:41;10.68;;;1.55;;
48578;SDS011;34357;51.948;6.132;2023-03-04T04:54:07;13.82;;;1.60;;
48578;SDS011;34357;51.948;6.132;2023-03-04T04:56:34;14.40;;;1.85;;
48578;SDS011;34357;51.948;6.132;2023-03-04T04:59:01;17.85;;;2.25;;
48578;SDS011;34357;51.948;6.132;2023-03-04T05:01:29;11.18;;;1.60;;
48578;SDS011;34357;51.948;6.132;2023-03-04T05:03:55;8.63;;;1.27;;
48578;SDS011;34357;51.948;6.132;2023-03-04T05:06:22;8.43;;;1.33;;
48578;SDS011;34357;51.948;6.132;2023-03-04T05:08:48;12.52;;;1.60;;
48578;SDS011;34357;51.948;6.132;2023-03-04T05:11:15;10.80;;;1.50;;
48578;SDS011;34357;51.948;6.132;2023-03-04T05:13:43;13.45;;;1.77;;
48578;SDS011;34357;51.948;6.132;2023-03-04T05:16:10;10.18;;;2.10;;
48578;SDS011;34357;51.948;6.132;2023-03-04T05:18:37;11.32;;;1.73;;
48578;SDS011;34357;51.948;6.132;2023-03-04T05:21:03;11.93;;;1.48;;
48578;SDS011;34357;51.948;6.132;2023-03-04T05:23:31;15.77;;;1.90;;
48578;SDS011;34357;51.948;6.132;2023-03-04T05:25:58;11.52;;;1.42;;
48578;SDS011;34357;51.948;6.132;2023-03-04T05:28:25;9.07;;;1.80;;
48578;SDS011;34357;51.948;6.132;2023-03-04T05:30:50;11.50;;;1.67;;
48578;SDS011;34357;51.948;6.132;2023-03-04T05:33:16;8.95;;;1.40;;
48578;SDS011;34357;51.948;6.132;2023-03-04T05:35:43;12.50;;;1.55;;
48578;SDS011;34357;51.948;6.132;2023-03-04T05:38:11;10.07;;;1.35;;
48578;SDS011;34357;51.948;6.132;2023-03-04T05:40:38;12.55;;;2.00;;
48578;SDS011;34357;51.948;6.132;2023-03-04T05:43:05;8.57;;;1.45;;
48578;SDS011;34357;51.948;6.132;2023-03-04T05:45:32;17.50;;;1.73;;
48578;SDS011;34357;51.948;6.132;2023-03-04T05:47:58;11.48;;;1.75;;
48578;SDS011;34357;51.948;6.132;2023-03-04T05:50:24;16.08;;;2.10;;
48578;SDS011;34357;51.948;6.132;2023-03-04T05:52:51;9.75;;;1.85;;
48578;SDS011;34357;51.948;6.132;2023-03-04T05:55:17;14.73;;;1.63;;
48578;SDS011;34357;51.948;6.132;2023-03-04T05:57:43;19.92;;;2.25;;
48578;SDS011;34357;51.948;6.132;2023-03-04T06:00:09;16.05;;;1.70;;
48578;SDS011;34357;51.948;6.132;2023-03-04T06:02:40;16.08;;;1.98;;
48578;SDS011;34357;51.948;6.132;2023-03-04T06:05:07;20.58;;;1.90;;
48578;SDS011;34357;51.948;6.132;2023-03-04T06:07:34;13.48;;;1.40;;
48578;SDS011;34357;51.948;6.132;2023-03-04T06:10:00;11.13;;;1.40;;
48578;SDS011;34357;51.948;6.132;2023-03-04T06:12:25;11.57;;;1.70;;
48578;SDS011;34357;51.948;6.132;2023-03-04T06:14:53;14.38;;;2.10;;
48578;SDS011;34357;51.948;6.132;2023-03-04T06:17:19;15.65;;;2.03;;
48578;SDS011;34357;51.948;6.132;2023-03-04T06:19:44;12.88;;;1.92;;
48578;SDS011;34357;51.948;6.132;2023-03-04T06:22:10;13.95;;;1.83;;
48578;SDS011;34357;51.948;6.132;2023-03-04T06:24:36;11.23;;;1.63;;
48578;SDS011;34357;51.948;6.132;2023-03-04T06:27:02;10.82;;;1.33;;
48578;SDS011;34357;51.948;6.132;2023-03-04T06:29:28;14.98;;;1.98;;
48578;SDS011;34357;51.948;6.132;2023-03-04T06:31:53;11.02;;;1.60;;
48578;SDS011;34357;51.948;6.132;2023-03-04T06:34:19;12.68;;;2.10;;
48578;SDS011;34357;51.948;6.132;2023-03-04T06:36:45;20.08;;;2.45;;
48578;SDS011;34357;51.948;6.132;2023-03-04T06:39:11;13.57;;;1.67;;
48578;SDS011;34357;51.948;6.132;2023-03-04T06:41:37;17.25;;;2.03;;
48578;SDS011;34357;51.948;6.132;2023-03-04T06:44:03;19.20;;;2.72;;
48578;SDS011;34357;51.948;6.132;2023-03-04T06:46:29;13.02;;;2.25;;
48578;SDS011;34357;51.948;6.132;2023-03-04T06:48:57;9.00;;;1.52;;
48578;SDS011;34357;51.948;6.132;2023-03-04T06:51:23;16.55;;;2.53;;
48578;SDS011;34357;51.948;6.132;2023-03-04T06:53:50;15.00;;;2.10;;
48578;SDS011;34357;51.948;6.132;2023-03-04T06:56:16;11.20;;;1.63;;
48578;SDS011;34357;51.948;6.132;2023-03-04T06:58:42;15.02;;;2.28;;
48578;SDS011;34357;51.948;6.132;2023-03-04T07:01:27;15.75;;;1.65;;
48578;SDS011;34357;51.948;6.132;2023-03-04T07:03:54;14.90;;;2.15;;
48578;SDS011;34357;51.948;6.132;2023-03-04T07:06:22;15.95;;;1.90;;
48578;SDS011;34357;51.948;6.132;2023-03-04T07:08:50;14.75;;;2.00;;
48578;SDS011;34357;51.948;6.132;2023-03-04T07:11:15;13.63;;;1.48;;
48578;SDS011;34357;51.948;6.132;2023-03-04T07:13:42;19.48;;;1.73;;
48578;SDS011;34357;51.948;6.132;2023-03-04T07:16:10;17.58;;;2.42;;
48578;SDS011;34357;51.948;6.132;2023-03-04T07:18:38;12.20;;;1.77;;
48578;SDS011;34357;51.948;6.132;2023-03-04T07:21:05;14.13;;;1.90;;
48578;SDS011;34357;51.948;6.132;2023-03-04T07:23:32;13.02;;;1.90;;
48578;SDS011;34357;51.948;6.132;2023-03-04T07:26:00;11.70;;;1.55;;
48578;SDS011;34357;51.948;6.132;2023-03-04T07:28:27;17.73;;;2.13;;
48578;SDS011;34357;51.948;6.132;2023-03-04T07:30:52;15.68;;;1.85;;
48578;SDS011;34357;51.948;6.132;2023-03-04T07:33:18;10.68;;;1.58;;
48578;SDS011;34357;51.948;6.132;2023-03-04T07:35:47;13.05;;;2.15;;
48578;SDS011;34357;51.948;6.132;2023-03-04T07:38:13;10.85;;;2.10;;
48578;SDS011;34357;51.948;6.132;2023-03-04T07:40:38;8.05;;;1.27;;
48578;SDS011;34357;51.948;6.132;2023-03-04T07:43:04;10.23;;;1.45;;
48578;SDS011;34357;51.948;6.132;2023-03-04T07:45:30;11.82;;;1.77;;
48578;SDS011;34357;51.948;6.132;2023-03-04T07:47:59;13.45;;;2.55;;
48578;SDS011;34357;51.948;6.132;2023-03-04T07:50:25;9.90;;;1.63;;
48578;SDS011;34357;51.948;6.132;2023-03-04T07:52:51;15.60;;;1.85;;
48578;SDS011;34357;51.948;6.132;2023-03-04T07:55:18;11.70;;;1.45;;
48578;SDS011;34357;51.948;6.132;2023-03-04T07:57:44;12.30;;;1.80;;
48578;SDS011;34357;51.948;6.132;2023-03-04T08:00:12;16.90;;;2.35;;
48578;SDS011;34357;51.948;6.132;2023-03-04T08:02:40;14.88;;;1.85;;
48578;SDS011;34357;51.948;6.132;2023-03-04T08:05:06;12.63;;;2.05;;
48578;SDS011;34357;51.948;6.132;2023-03-04T08:07:32;16.05;;;2.10;;
48578;SDS011;34357;51.948;6.132;2023-03-04T08:09:58;13.88;;;1.90;;
48578;SDS011;34357;51.948;6.132;2023-03-04T08:12:24;11.48;;;2.03;;
48578;SDS011;34357;51.948;6.132;2023-03-04T08:14:50;14.93;;;1.80;;
48578;SDS011;34357;51.948;6.132;2023-03-04T08:17:16;20.50;;;2.20;;
48578;SDS011;34357;51.948;6.132;2023-03-04T08:19:43;11.85;;;1.75;;
48578;SDS011;34357;51.948;6.132;2023-03-04T08:22:09;16.15;;;2.03;;
48578;SDS011;34357;51.948;6.132;2023-03-04T08:24:35;12.10;;;1.65;;
48578;SDS011;34357;51.948;6.132;2023-03-04T08:27:00;13.75;;;1.88;;
48578;SDS011;34357;51.948;6.132;2023-03-04T08:29:27;12.00;;;1.92;;
48578;SDS011;34357;51.948;6.132;2023-03-04T08:31:53;6.50;;;1.40;;
48578;SDS011;34357;51.948;6.132;2023-03-04T08:34:23;11.05;;;1.33;;
48578;SDS011;34357;51.948;6.132;2023-03-04T08:36:51;8.73;;;1.50;;
48578;SDS011;34357;51.948;6.132;2023-03-04T08:39:17;9.98;;;1.58;;
48578;SDS011;34357;51.948;6.132;2023-03-04T08:41:44;7.50;;;1.38;;
48578;SDS011;34357;51.948;6.132;2023-03-04T08:44:11;6.55;;;1.23;;
48578;SDS011;34357;51.948;6.132;2023-03-04T08:46:38;9.30;;;1.50;;
48578;SDS011;34357;51.948;6.132;2023-03-04T08:49:05;12.02;;;1.85;;
48578;SDS011;34357;51.948;6.132;2023-03-04T08:51:31;10.70;;;1.73;;
48578;SDS011;34357;51.948;6.132;2023-03-04T08:53:59;13.98;;;1.70;;
48578;SDS011;34357;51.948;6.132;2023-03-04T08:56:26;9.45;;;1.75;;
48578;SDS011;34357;51.948;6.132;2023-03-04T08:58:51;9.60;;;1.52;;
48578;SDS011;34357;51.948;6.132;2023-03-04T09:01:17;5.93;;;1.63;;
48578;SDS011;34357;51.948;6.132;2023-03-04T09:03:43;12.50;;;2.85;;
48578;SDS011;34357;51.948;6.132;2023-03-04T09:06:10;8.05;;;1.45;;
48578;SDS011;34357;51.948;6.132;2023-03-04T09:08:38;7.45;;;1.67;;
48578;SDS011;34357;51.948;6.132;2023-03-04T09:11:07;6.40;;;1.40;;
48578;SDS011;34357;51.948;6.132;2023-03-04T09:13:33;11.80;;;1.98;;
48578;SDS011;34357;51.948;6.132;2023-03-04T09:15:59;10.63;;;1.88;;
48578;SDS011;34357;51.948;6.132;2023-03-04T09:18:25;12.38;;;1.88;;
48578;SDS011;34357;51.948;6.132;2023-03-04T09:20:52;6.88;;;1.50;;
48578;SDS011;34357;51.948;6.132;2023-03-04T09:23:17;13.80;;;1.60;;
48578;SDS011;34357;51.948;6.132;2023-03-04T09:25:44;5.97;;;1.40;;
48578;SDS011;34357;51.948;6.132;2023-03-04T09:28:11;7.15;;;1.80;;
48578;SDS011;34357;51.948;6.132;2023-03-04T09:30:38;6.80;;;1.60;;
48578;SDS011;34357;51.948;6.132;2023-03-04T09:33:04;9.65;;;1.77;;
48578;SDS011;34357;51.948;6.132;2023-03-04T09:35:30;10.00;;;1.55;;
48578;SDS011;34357;51.948;6.132;2023-03-04T09:37:56;7.75;;;1.60;;
48578;SDS011;34357;51.948;6.132;2023-03-04T09:40:36;8.43;;;1.40;;
48578;SDS011;34357;51.948;6.132;2023-03-04T09:43:11;11.88;;;1.17;;
48578;SDS011;34357;51.948;6.132;2023-03-04T09:45:49;8.27;;;1.50;;
48578;SDS011;34357;51.948;6.132;2023-03-04T09:48:23;4.45;;;1.25;;
48578;SDS011;34357;51.948;6.132;2023-03-04T09:53:20;7.45;;;1.20;;
48578;SDS011;34357;51.948;6.132;2023-03-04T09:55:51;5.50;;;1.25;;
48578;SDS011;34357;51.948;6.132;2023-03-04T10:01:24;4.82;;;0.90;;
48578;SDS011;34357;51.948;6.132;2023-03-04T10:03:59;4.95;;;1.23;;
48578;SDS011;34357;51.948;6.132;2023-03-04T10:16:52;5.43;;;1.55;;
48578;SDS011;34357;51.948;6.132;2023-03-04T10:22:18;7.18;;;1.50;;
48578;SDS011;34357;51.948;6.132;2023-03-04T10:24:48;4.00;;;1.35;;
48578;SDS011;34357;51.948;6.132;2023-03-04T10:27:17;5.32;;;1.30;;
48578;SDS011;34357;51.948;6.132;2023-03-04T10:29:44;6.07;;;1.27;;
48578;SDS011;34357;51.948;6.132;2023-03-04T10:32:11;5.13;;;1.40;;
48578;SDS011;34357;51.948;6.132;2023-03-04T10:34:40;5.13;;;1.20;;
48578;SDS011;34357;51.948;6.132;2023-03-04T10:37:06;3.85;;;1.40;;
48578;SDS011;34357;51.948;6.132;2023-03-04T10:39:40;8.05;;;2.10;;
48578;SDS011;34357;51.948;6.132;2023-03-04T10:47:08;3.53;;;1.10;;
48578;SDS011;34357;51.948;6.132;2023-03-04T10:49:48;4.90;;;1.55;;
48578;SDS011;34357;51.948;6.132;2023-03-04T10:55:03;5.72;;;1.88;;
48578;SDS011;34357;51.948;6.132;2023-03-04T10:57:39;4.50;;;1.45;;
48578;SDS011;34357;51.948;6.132;2023-03-04T11:02:42;3.35;;;1.10;;
48578;SDS011;34357;51.948;6.132;2023-03-04T11:05:22;3.50;;;1.58;;
48578;SDS011;34357;51.948;6.132;2023-03-04T11:10:20;5.70;;;1.50;;
48578;SDS011;34357;51.948;6.132;2023-03-04T11:12:47;4.68;;;1.40;;
48578;SDS011;34357;51.948;6.132;2023-03-04T11:15:16;1.90;;;1.10;;
48578;SDS011;34357;51.948;6.132;2023-03-04T11:17:52;9.30;;;1.45;;
48578;SDS011;34357;51.948;6.132;2023-03-04T11:22:56;4.88;;;1.10;;
48578;SDS011;34357;51.948;6.132;2023-03-04T11:25:35;2.78;;;0.80;;
48578;SDS011;34357;51.948;6.132;2023-03-04T11:28:19;4.13;;;1.05;;
48578;SDS011;34357;51.948;6.132;2023-03-04T11:30:55;2.40;;;0.90;;
48578;SDS011;34357;51.948;6.132;2023-03-04T11:33:28;3.20;;;1.10;;
48578;SDS011;34357;51.948;6.132;2023-03-04T11:36:49;3.40;;;1.38;;
48578;SDS011;34357;51.948;6.132;2023-03-04T11:38:53;2.50;;;1.38;;
48578;SDS011;34357;51.948;6.132;2023-03-04T11:41:24;2.38;;;1.30;;
48578;SDS011;34357;51.948;6.132;2023-03-04T11:43:57;4.63;;;1.17;;
48578;SDS011;34357;51.948;6.132;2023-03-04T11:52:43;6.25;;;1.27;;
48578;SDS011;34357;51.948;6.132;2023-03-04T11:55:28;1.75;;;0.90;;
48578;SDS011;34357;51.948;6.132;2023-03-04T12:01:14;3.88;;;1.27;;
48578;SDS011;34357;51.948;6.132;2023-03-04T12:12:01;4.40;;;0.63;;
48578;SDS011;34357;51.948;6.132;2023-03-04T12:37:47;5.45;;;1.05;;
48578;SDS011;34357;51.948;6.132;2023-03-04T12:40:13;4.80;;;1.27;;
48578;SDS011;34357;51.948;6.132;2023-03-04T12:45:56;7.07;;;1.35;;
48578;SDS011;34357;51.948;6.132;2023-03-04T12:51:16;7.18;;;1.20;;
48578;SDS011;34357;51.948;6.132;2023-03-04T12:59:39;13.30;;;1.92;;
48578;SDS011;34357;51.948;6.132;2023-03-04T13:10:32;10.27;;;1.50;;
48578;SDS011;34357;51.948;6.132;2023-03-04T13:12:58;10.93;;;2.38;;
48578;SDS011;34357;51.948;6.132;2023-03-04T13:17:57;13.93;;;2.33;;
48578;SDS011;34357;51.948;6.132;2023-03-04T13:25:32;14.27;;;1.98;;
48578;SDS011;34357;51.948;6.132;2023-03-04T13:48:44;14.93;;;2.58;;
48578;SDS011;34357;51.948;6.132;2023-03-04T13:51:15;14.88;;;3.38;;
48578;SDS011;34357;51.948;6.132;2023-03-04T13:53:48;14.15;;;2.97;;
48578;SDS011;34357;51.948;6.132;2023-03-04T13:56:37;20.08;;;2.70;;
48578;SDS011;34357;51.948;6.132;2023-03-04T14:06:43;14.68;;;2.17;;
48578;SDS011;34357;51.948;6.132;2023-03-04T14:09:23;13.07;;;2.20;;
48578;SDS011;34357;51.948;6.132;2023-03-04T14:11:51;15.63;;;2.30;;
48578;SDS011;34357;51.948;6.132;2023-03-04T14:17:30;11.73;;;2.42;;
48578;SDS011;34357;51.948;6.132;2023-03-04T14:20:01;18.70;;;1.80;;
48578;SDS011;34357;51.948;6.132;2023-03-04T14:22:30;14.70;;;2.63;;
48578;SDS011;34357;51.948;6.132;2023-03-04T14:25:02;17.75;;;2.20;;
48578;SDS011;34357;51.948;6.132;2023-03-04T14:27:44;12.27;;;2.03;;
48578;SDS011;34357;51.948;6.132;2023-03-04T14:32:45;11.48;;;1.55;;
48578;SDS011;34357;51.948;6.132;2023-03-04T14:35:21;8.65;;;1.70;;
48578;SDS011;34357;51.948;6.132;2023-03-04T14:40:41;11.85;;;1.95;;
48578;SDS011;34357;51.948;6.132;2023-03-04T14:43:19;11.07;;;1.90;;
48578;SDS011;34357;51.948;6.132;2023-03-04T14:45:48;14.18;;;2.53;;
48578;SDS011;34357;51.948;6.132;2023-03-04T14:48:21;17.92;;;2.65;;
48578;SDS011;34357;51.948;6.132;2023-03-04T14:50:51;12.35;;;2.10;;
48578;SDS011;34357;51.948;6.132;2023-03-04T14:53:20;15.93;;;2.42;;
48578;SDS011;34357;51.948;6.132;2023-03-04T14:56:06;11.32;;;2.38;;
48578;SDS011;34357;51.948;6.132;2023-03-04T14:58:37;12.82;;;1.80;;
48578;SDS011;34357;51.948;6.132;2023-03-04T15:01:22;11.38;;;1.77;;
48578;SDS011;34357;51.948;6.132;2023-03-04T15:06:36;15.70;;;2.13;;
48578;SDS011;34357;51.948;6.132;2023-03-04T15:09:25;12.35;;;1.98;;
48578;SDS011;34357;51.948;6.132;2023-03-04T15:12:01;17.75;;;1.90;;
48578;SDS011;34357;51.948;6.132;2023-03-04T15:14:41;12.95;;;2.22;;
48578;SDS011;34357;51.948;6.132;2023-03-04T15:25:05;12.63;;;1.75;;
48578;SDS011;34357;51.948;6.132;2023-03-04T15:27:31;8.55;;;1.35;;
48578;SDS011;34357;51.948;6.132;2023-03-04T15:29:57;10.77;;;1.48;;
48578;SDS011;34357;51.948;6.132;2023-03-04T15:32:25;9.93;;;0.90;;
48578;SDS011;34357;51.948;6.132;2023-03-04T15:34:51;8.02;;;1.17;;
48578;SDS011;34357;51.948;6.132;2023-03-04T15:37:19;12.15;;;1.40;;
48578;SDS011;34357;51.948;6.132;2023-03-04T15:39:47;2.65;;;0.70;;
48578;SDS011;34357;51.948;6.132;2023-03-04T15:42:13;9.88;;;1.17;;
48578;SDS011;34357;51.948;6.132;2023-03-04T15:44:38;11.68;;;2.47;;
48578;SDS011;34357;51.948;6.132;2023-03-04T15:47:04;8.88;;;1.23;;
48578;SDS011;34357;51.948;6.132;2023-03-04T15:49:33;9.35;;;1.35;;
48578;SDS011;34357;51.948;6.132;2023-03-04T15:51:59;12.05;;;2.42;;
48578;SDS011;34357;51.948;6.132;2023-03-04T15:54:29;8.95;;;1.60;;
48578;SDS011;34357;51.948;6.132;2023-03-04T15:56:55;7.53;;;1.52;;
48578;SDS011;34357;51.948;6.132;2023-03-04T15:59:22;7.78;;;1.35;;
48578;SDS011;34357;51.948;6.132;2023-03-04T16:01:49;7.53;;;0.93;;
48578;SDS011;34357;51.948;6.132;2023-03-04T16:04:15;6.72;;;0.95;;
48578;SDS011;34357;51.948;6.132;2023-03-04T16:06:44;6.57;;;0.80;;
48578;SDS011;34357;51.948;6.132;2023-03-04T16:09:12;8.52;;;1.05;;
48578;SDS011;34357;51.948;6.132;2023-03-04T16:11:41;11.18;;;1.63;;
48578;SDS011;34357;51.948;6.132;2023-03-04T16:16:39;10.10;;;1.40;;
48578;SDS011;34357;51.948;6.132;2023-03-04T16:19:05;21.73;;;2.90;;
48578;SDS011;34357;51.948;6.132;2023-03-04T16:21:31;8.88;;;1.40;;
48578;SDS011;34357;51.948;6.132;2023-03-04T16:23:57;9.57;;;1.83;;
48578;SDS011;34357;51.948;6.132;2023-03-04T16:26:24;8.73;;;1.80;;
48578;SDS011;34357;51.948;6.132;2023-03-04T16:28:51;11.50;;;1.75;;
48578;SDS011;34357;51.948;6.132;2023-03-04T16:31:18;13.07;;;2.10;;
48578;SDS011;34357;51.948;6.132;2023-03-04T16:33:45;15.02;;;3.00;;
48578;SDS011;34357;51.948;6.132;2023-03-04T16:36:18;16.27;;;2.67;;
48578;SDS011;34357;51.948;6.132;2023-03-04T16:38:47;23.20;;;2.38;;
48578;SDS011;34357;51.948;6.132;2023-03-04T16:41:14;12.20;;;2.55;;
48578;SDS011;34357;51.948;6.132;2023-03-04T16:43:42;13.48;;;2.08;;
48578;SDS011;34357;51.948;6.132;2023-03-04T16:46:11;18.25;;;2.78;;
48578;SDS011;34357;51.948;6.132;2023-03-04T16:48:37;16.25;;;2.63;;
48578;SDS011;34357;51.948;6.132;2023-03-04T16:51:06;16.95;;;2.40;;
48578;SDS011;34357;51.948;6.132;2023-03-04T16:53:37;16.80;;;2.33;;
48578;SDS011;34357;51.948;6.132;2023-03-04T16:56:05;14.75;;;2.70;;
48578;SDS011;34357;51.948;6.132;2023-03-04T16:58:36;12.55;;;2.40;;
48578;SDS011;34357;51.948;6.132;2023-03-04T17:01:01;12.10;;;1.73;;
48578;SDS011;34357;51.948;6.132;2023-03-04T17:03:28;12.98;;;2.38;;
48578;SDS011;34357;51.948;6.132;2023-03-04T17:05:54;15.57;;;2.42;;
48578;SDS011;34357;51.948;6.132;2023-03-04T17:08:19;11.38;;;2.22;;
48578;SDS011;34357;51.948;6.132;2023-03-04T17:10:45;14.68;;;2.17;;
48578;SDS011;34357;51.948;6.132;2023-03-04T17:13:12;14.65;;;2.33;;
48578;SDS011;34357;51.948;6.132;2023-03-04T17:15:38;13.57;;;2.83;;
48578;SDS011;34357;51.948;6.132;2023-03-04T17:18:07;19.55;;;2.70;;
48578;SDS011;34357;51.948;6.132;2023-03-04T17:20:33;17.55;;;2.47;;